Time;durP1;ratioP1;P1;durP2;ratioP2;P2;SDS_P1;SDS_P2;PMS_P1;PMS_P2;Temp;Humidity;BMP_temperature;BMP_pressure;BME280_temperature;BME280_humidity;BME280_pressure;Samples;Min_cycle;Max_cycle;Signal;HPM_P1;HPM_P2
2021/12/25 00:02:58;;;;;;;10.77;4.95;;;8.10;99.90;;;;;;6746488;88;20184;-78
2021/12/25 00:12:59;;;;;;;9.27;4.10;;;8.20;99.90;;;;;;6746870;88;20272;-77
2021/12/25 00:23:01;;;;;;;10.48;4.80;;;8.20;99.90;;;;;;6745414;88;20202;-77
2021/12/25 00:33:07;;;;;;;10.60;4.95;;;8.20;99.90;;;;;;6741401;88;20216;-77
2021/12/25 00:43:07;;;;;;;11.38;5.10;;;8.20;99.90;;;;;;6744435;88;20176;-77
2021/12/25 00:53:08;;;;;;;10.93;6.12;;;8.40;99.90;;;;;;6744247;88;20229;-77
2021/12/25 01:03:09;;;;;;;14.20;6.03;;;8.30;99.90;;;;;;6743004;88;20346;-77
2021/12/25 01:13:15;;;;;;;12.13;5.80;;;8.30;99.90;;;;;;6744564;88;20200;-77
2021/12/25 01:23:55;;;;;;;9.00;5.37;;;8.10;99.90;;;;;;6744336;88;20295;-77
2021/12/25 01:54:11;;;;;;;12.23;6.07;;;7.90;99.90;;;;;;6747795;88;20172;-77
2021/12/25 02:04:11;;;;;;;13.73;6.07;;;8.20;99.90;;;;;;6739842;88;20632;-77
2021/12/25 02:14:12;;;;;;;11.12;5.15;;;8.20;99.90;;;;;;6742523;88;20220;-77
2021/12/25 02:24:13;;;;;;;9.73;5.35;;;7.90;99.90;;;;;;6743147;88;20212;-77
2021/12/25 02:34:15;;;;;;;9.77;5.15;;;8.10;99.90;;;;;;6744061;88;20640;-78
2021/12/25 02:44:16;;;;;;;9.32;4.97;;;7.80;99.90;;;;;;6742894;88;20198;-78
2021/12/25 02:54:17;;;;;;;11.02;4.97;;;7.70;99.90;;;;;;6741208;88;20184;-77
2021/12/25 03:04:17;;;;;;;8.65;4.68;;;7.60;99.90;;;;;;6739420;88;20238;-77
2021/12/25 03:14:32;;;;;;;8.30;4.95;;;7.50;99.90;;;;;;6745875;88;20269;-76
2021/12/25 03:24:34;;;;;;;9.65;5.15;;;7.50;99.90;;;;;;6747486;88;20332;-76
2021/12/25 03:34:35;;;;;;;11.27;5.05;;;7.20;99.90;;;;;;6741475;88;20579;-77
2021/12/25 03:44:36;;;;;;;12.45;6.03;;;7.10;99.90;;;;;;6754266;88;20195;-77
2021/12/25 04:04:57;;;;;;;10.73;6.07;;;7.10;99.90;;;;;;6752737;87;20191;-77
2021/12/25 04:14:59;;;;;;;10.95;6.28;;;7.00;99.90;;;;;;6744230;88;20263;-77
2021/12/25 04:24:59;;;;;;;12.60;6.28;;;7.10;99.90;;;;;;6735784;88;20626;-77
2021/12/25 05:06:00;;;;;;;12.50;6.28;;;7.20;99.90;;;;;;6743780;88;20247;-77
2021/12/25 05:16:02;;;;;;;11.40;6.32;;;7.20;99.90;;;;;;6745770;88;20626;-77
2021/12/25 05:26:03;;;;;;;11.45;6.75;;;7.20;99.90;;;;;;6744036;88;20307;-77
2021/12/25 05:36:05;;;;;;;13.07;7.55;;;7.20;99.90;;;;;;6737888;88;20216;-77
2021/12/25 05:46:06;;;;;;;10.40;6.95;;;7.10;99.90;;;;;;6741070;88;20755;-78
2021/12/25 05:56:06;;;;;;;10.93;6.95;;;7.00;99.90;;;;;;6736808;88;20226;-78
2021/12/25 06:06:07;;;;;;;12.63;7.40;;;6.90;99.90;;;;;;6737887;88;20439;-77
2021/12/25 06:16:08;;;;;;;15.63;8.23;;;7.00;99.90;;;;;;6741421;88;20684;-77
2021/12/25 06:26:08;;;;;;;11.80;5.80;;;7.10;99.90;;;;;;6751493;87;20628;-78
2021/12/25 06:36:09;;;;;;;12.02;6.00;;;7.00;99.90;;;;;;6759236;88;20205;-77
2021/12/25 06:46:09;;;;;;;11.00;5.07;;;6.90;99.90;;;;;;6755889;88;20193;-78
2021/12/25 06:56:10;;;;;;;9.93;5.03;;;6.80;99.90;;;;;;6749270;88;20200;-78
2021/12/25 07:06:10;;;;;;;10.20;4.37;;;6.70;99.90;;;;;;6740720;88;20683;-77
2021/12/25 07:16:11;;;;;;;9.63;4.87;;;6.80;99.90;;;;;;6743950;88;20192;-77
2021/12/25 07:26:12;;;;;;;7.37;3.80;;;6.70;99.90;;;;;;6743319;88;20215;-77
2021/12/25 07:36:13;;;;;;;3.03;1.80;;;6.60;99.90;;;;;;6743711;88;20237;-77
2021/12/25 07:46:14;;;;;;;2.65;1.45;;;6.40;99.90;;;;;;6744076;88;20251;-77
2021/12/25 07:56:15;;;;;;;3.15;1.42;;;6.20;99.90;;;;;;6748500;88;20186;-77
2021/12/25 08:06:15;;;;;;;2.67;1.40;;;5.90;99.90;;;;;;6745388;88;20649;-77
2021/12/25 08:16:16;;;;;;;2.53;1.60;;;5.80;99.90;;;;;;6755822;88;20224;-77
2021/12/25 08:26:17;;;;;;;3.50;1.40;;;5.60;99.90;;;;;;6762015;88;21181;-77
2021/12/25 08:36:17;;;;;;;2.00;1.10;;;5.50;99.90;;;;;;6765636;88;20527;-77
2021/12/25 08:46:34;;;;;;;2.22;1.25;;;5.30;99.90;;;;;;6770329;88;20697;-77
2021/12/25 08:56:35;;;;;;;2.45;1.50;;;5.00;99.90;;;;;;6765275;88;20205;-77
2021/12/25 09:06:38;;;;;;;2.37;1.40;;;4.90;99.90;;;;;;6759433;77;20201;-76
2021/12/25 09:16:38;;;;;;;2.40;1.30;;;5.00;99.90;;;;;;6738786;88;20189;-76
2021/12/25 09:26:39;;;;;;;3.63;1.40;;;4.80;99.90;;;;;;6739078;88;20196;-75
2021/12/25 09:36:39;;;;;;;3.15;1.60;;;4.80;99.90;;;;;;6739222;88;21121;-76
2021/12/25 09:46:40;;;;;;;3.10;1.40;;;4.80;99.90;;;;;;6738477;88;20235;-75
2021/12/25 09:56:42;;;;;;;3.20;1.70;;;4.60;99.90;;;;;;6739820;88;20273;-76
2021/12/25 10:06:44;;;;;;;2.30;1.20;;;4.70;99.90;;;;;;6738621;88;20647;-75
2021/12/25 10:16:45;;;;;;;3.20;1.42;;;4.70;99.90;;;;;;6737578;88;20206;-75
2021/12/25 10:26:47;;;;;;;2.85;1.75;;;4.60;99.90;;;;;;6735706;88;20259;-75
2021/12/25 10:36:49;;;;;;;2.08;1.20;;;4.60;99.90;;;;;;6738087;88;20600;-76
2021/12/25 10:47:05;;;;;;;2.72;1.50;;;4.40;99.90;;;;;;6737311;88;20231;-76
2021/12/25 10:57:06;;;;;;;1.80;1.20;;;4.30;99.90;;;;;;6737261;88;20639;-76
2021/12/25 11:07:15;;;;;;;2.30;1.20;;;4.30;99.90;;;;;;6738446;88;20331;-76
2021/12/25 11:17:22;;;;;;;2.80;1.48;;;4.40;99.90;;;;;;6738484;88;20184;-76
2021/12/25 11:27:23;;;;;;;2.47;1.23;;;4.20;99.90;;;;;;6737597;88;20213;-75
2021/12/25 11:37:25;;;;;;;4.35;1.65;;;4.40;99.90;;;;;;6737201;88;20196;-76
2021/12/25 11:47:39;;;;;;;3.10;1.58;;;4.50;99.90;;;;;;6736832;88;20186;-75
2021/12/25 11:58:00;;;;;;;2.80;1.60;;;4.40;99.90;;;;;;6721701;88;20271;-76
2021/12/25 12:08:12;;;;;;;2.10;1.27;;;4.40;99.90;;;;;;6722341;88;20198;-76
2021/12/25 12:18:25;;;;;;;3.58;1.45;;;4.40;99.90;;;;;;6723162;88;20192;-76
2021/12/25 12:28:43;;;;;;;2.92;1.60;;;4.50;99.90;;;;;;6723054;88;20229;-76
2021/12/25 12:38:46;;;;;;;2.70;1.27;;;4.50;99.90;;;;;;6722104;88;20636;-76
2021/12/25 12:49:08;;;;;;;2.72;1.30;;;4.50;99.90;;;;;;6726048;88;20276;-75
2021/12/25 12:59:08;;;;;;;2.30;0.93;;;4.40;99.90;;;;;;6732448;88;20245;-75
2021/12/25 13:09:09;;;;;;;2.08;1.10;;;4.30;99.90;;;;;;6724182;88;20862;-75
2021/12/25 13:19:09;;;;;;;2.33;1.10;;;3.70;99.90;;;;;;6744125;88;20348;-75
2021/12/25 13:29:12;;;;;;;2.50;0.90;;;4.00;99.90;;;;;;6739316;88;20249;-76
2021/12/25 13:39:16;;;;;;;1.90;1.10;;;3.90;99.90;;;;;;6738982;88;20224;-76
2021/12/25 13:49:36;;;;;;;2.05;1.25;;;4.10;99.90;;;;;;6737080;88;20213;-76
2021/12/25 13:59:38;;;;;;;2.47;1.12;;;4.00;99.90;;;;;;6737698;88;20188;-76
2021/12/25 14:09:39;;;;;;;1.58;0.90;;;4.00;99.90;;;;;;6737838;88;20317;-76
2021/12/25 14:19:40;;;;;;;2.00;1.10;;;4.00;99.90;;;;;;6722841;88;20186;-76
2021/12/25 14:29:41;;;;;;;1.85;1.02;;;3.90;99.90;;;;;;6723421;88;20219;-75
2021/12/25 14:39:41;;;;;;;2.25;1.20;;;3.90;99.90;;;;;;6723373;88;20207;-75
2021/12/25 14:49:48;;;;;;;2.05;1.10;;;3.90;99.90;;;;;;6723630;88;20694;-75
2021/12/25 14:59:49;;;;;;;2.15;1.20;;;3.80;99.90;;;;;;6735605;88;20765;-74
2021/12/25 15:10:10;;;;;;;2.40;1.20;;;3.50;99.90;;;;;;6742408;77;20188;-78
2021/12/25 15:20:18;;;;;;;2.33;1.12;;;3.60;99.90;;;;;;6742372;88;20173;-75
2021/12/25 15:30:25;;;;;;;2.12;1.15;;;3.40;99.90;;;;;;6763840;88;20232;-76
2021/12/25 15:40:28;;;;;;;2.53;1.20;;;3.20;99.90;;;;;;6764589;88;20610;-78
2021/12/25 15:50:32;;;;;;;2.08;1.20;;;3.20;99.90;;;;;;6766237;88;20260;-75
2021/12/25 16:00:39;;;;;;;2.78;1.40;;;2.90;99.90;;;;;;6752776;88;20628;-76
2021/12/25 16:10:40;;;;;;;3.22;1.30;;;2.60;99.90;;;;;;6744541;88;20230;-76
2021/12/25 16:20:41;;;;;;;2.60;1.50;;;2.30;99.90;;;;;;6746665;88;20718;-77
2021/12/25 16:30:44;;;;;;;3.15;1.65;;;2.40;99.90;;;;;;6745701;88;20214;-75
2021/12/25 16:40:45;;;;;;;4.05;2.20;;;2.60;99.90;;;;;;6745992;88;20229;-76
2021/12/25 16:50:45;;;;;;;4.15;2.03;;;2.60;99.90;;;;;;6749169;88;20192;-76
2021/12/25 17:00:46;;;;;;;2.55;1.62;;;2.60;99.90;;;;;;6747822;88;20727;-76
2021/12/25 17:10:48;;;;;;;4.12;2.22;;;2.60;99.90;;;;;;6748558;87;20269;-76
2021/12/25 17:20:50;;;;;;;3.37;1.85;;;2.50;99.90;;;;;;6749910;88;20287;-75
2021/12/25 17:30:54;;;;;;;2.72;1.83;;;2.40;99.90;;;;;;6748721;88;20294;-76
2021/12/25 17:40:55;;;;;;;2.90;1.98;;;2.40;99.90;;;;;;6751331;88;20179;-75
2021/12/25 17:50:55;;;;;;;3.37;1.70;;;2.20;99.90;;;;;;6753311;88;20208;-76
2021/12/25 18:00:56;;;;;;;4.12;2.28;;;2.10;99.90;;;;;;6747879;88;20353;-76
2021/12/25 18:10:57;;;;;;;3.05;1.87;;;2.20;99.90;;;;;;6750415;88;20612;-76
2021/12/25 18:21:01;;;;;;;3.75;2.08;;;2.10;99.90;;;;;;6751408;88;20221;-76
2021/12/25 18:31:04;;;;;;;3.72;2.22;;;1.90;99.90;;;;;;6750086;88;20192;-76
2021/12/25 18:41:06;;;;;;;5.00;2.65;;;1.80;99.90;;;;;;6743526;88;20181;-76
2021/12/25 18:51:06;;;;;;;7.35;3.45;;;2.00;99.90;;;;;;6749371;88;20195;-76
2021/12/25 19:01:07;;;;;;;4.43;2.85;;;1.80;99.90;;;;;;6733375;88;20189;-75
2021/12/25 19:11:08;;;;;;;5.50;2.47;;;1.70;99.90;;;;;;6732311;88;20506;-76
2021/12/25 19:21:09;;;;;;;5.10;2.35;;;1.70;99.90;;;;;;6732293;88;20192;-75
2021/12/25 19:31:12;;;;;;;4.95;2.92;;;1.60;99.90;;;;;;6732385;88;20316;-76
2021/12/25 19:41:14;;;;;;;3.60;2.28;;;1.70;99.90;;;;;;6726256;88;20612;-76
2021/12/25 19:51:14;;;;;;;5.57;2.95;;;1.60;99.90;;;;;;6731083;88;20189;-76
2021/12/25 20:01:20;;;;;;;5.28;3.10;;;1.70;99.90;;;;;;6735800;88;20192;-76
2021/12/25 20:11:22;;;;;;;7.27;3.30;;;1.70;99.90;;;;;;6749589;88;20707;-76
2021/12/25 20:21:24;;;;;;;5.37;3.20;;;1.60;99.90;;;;;;6736910;88;20194;-76
2021/12/25 20:31:25;;;;;;;6.07;3.60;;;1.40;99.90;;;;;;6737675;88;20181;-76
2021/12/25 20:41:26;;;;;;;8.02;4.03;;;1.40;99.90;;;;;;6736296;88;20181;-77
2021/12/25 20:51:26;;;;;;;6.53;3.67;;;1.30;99.90;;;;;;6740868;88;20176;-77
2021/12/25 21:01:27;;;;;;;5.32;3.20;;;1.30;99.90;;;;;;6757813;88;20192;-77
2021/12/25 21:12:09;;;;;;;9.55;3.97;;;1.10;99.90;;;;;;6737964;77;20252;-77
2021/12/25 21:22:10;;;;;;;7.60;4.47;;;0.90;99.90;;;;;;6722076;88;20273;-77
2021/12/25 21:32:11;;;;;;;8.25;4.60;;;0.90;99.90;;;;;;6718930;88;20235;-77
2021/12/25 21:42:11;;;;;;;7.70;4.43;;;0.90;99.90;;;;;;6722846;88;20243;-78
2021/12/25 21:52:12;;;;;;;7.87;5.00;;;1.00;99.90;;;;;;6723580;88;20327;-78
2021/12/25 22:02:12;;;;;;;7.87;4.47;;;1.10;99.90;;;;;;6718592;88;20206;-79
2021/12/25 22:12:15;;;;;;;8.60;4.70;;;1.20;99.90;;;;;;6722328;88;20193;-78
2021/12/25 22:22:15;;;;;;;6.15;3.70;;;1.30;99.90;;;;;;6718995;88;20185;-80
2021/12/25 22:32:16;;;;;;;6.87;3.90;;;1.30;99.90;;;;;;6722784;88;20201;-78
2021/12/25 22:42:17;;;;;;;6.68;4.03;;;1.30;99.90;;;;;;6723020;88;20656;-78
2021/12/25 22:52:19;;;;;;;6.07;3.60;;;1.40;99.90;;;;;;6718564;88;20188;-78
2021/12/25 23:02:19;;;;;;;5.82;3.70;;;1.40;99.90;;;;;;6726774;88;20716;-77
2021/12/25 23:12:21;;;;;;;7.30;3.92;;;1.30;99.90;;;;;;6723145;88;20207;-78
2021/12/25 23:22:22;;;;;;;6.80;3.83;;;1.40;99.90;;;;;;6721579;88;20527;-77
2021/12/25 23:32:22;;;;;;;6.37;3.53;;;1.30;99.90;;;;;;6717739;88;20217;-77
2021/12/25 23:42:28;;;;;;;5.53;3.08;;;1.30;99.90;;;;;;6724310;88;20225;-78
2021/12/25 23:52:28;;;;;;;6.82;4.05;;;1.30;99.90;;;;;;6726437;88;20677;-78
